Time;durP1;ratioP1;P1;durP2;ratioP2;P2;SDS_P1;SDS_P2;PMS_P1;PMS_P2;Temp;Humidity;BMP_temperature;BMP_pressure;BME280_temperature;BME280_humidity;BME280_pressure;Samples;Min_cycle;Max_cycle;Signal;HPM_P1;HPM_P2
2022/10/06 00:02:11;;;;;;;12.10;11.00;;;10.10;99.90;;;;;;5130854;28;20219;-82
2022/10/06 00:04:37;;;;;;;18.93;17.53;;;10.10;99.90;;;;;;5124907;28;20188;-84
2022/10/06 00:07:03;;;;;;;14.97;13.80;;;10.10;99.90;;;;;;5124891;28;20267;-85
2022/10/06 00:09:29;;;;;;;14.77;13.47;;;10.10;99.90;;;;;;5133909;28;20216;-82
2022/10/06 00:11:55;;;;;;;16.53;15.03;;;10.10;99.90;;;;;;5116069;28;20219;-82
2022/10/06 00:14:21;;;;;;;13.80;12.50;;;10.10;99.90;;;;;;5115752;28;20177;-84
2022/10/06 00:16:46;;;;;;;19.60;17.83;;;10.00;99.90;;;;;;5119135;28;20261;-84
2022/10/06 00:19:12;;;;;;;15.37;14.13;;;10.10;99.90;;;;;;5114416;28;20210;-84
2022/10/06 00:21:38;;;;;;;25.97;24.20;;;10.10;99.90;;;;;;5126952;28;20157;-82
2022/10/06 00:24:04;;;;;;;58.07;54.63;;;10.10;99.90;;;;;;5123854;28;20187;-83
2022/10/06 00:26:30;;;;;;;48.23;45.27;;;10.10;99.90;;;;;;5114297;28;20686;-84
2022/10/06 00:28:55;;;;;;;64.40;60.30;;;10.00;99.90;;;;;;5113612;28;20184;-82
2022/10/06 00:31:22;;;;;;;64.73;61.23;;;10.10;99.90;;;;;;5117044;28;20232;-84
2022/10/06 00:33:49;;;;;;;63.97;60.40;;;10.10;99.90;;;;;;5115621;28;20180;-83
2022/10/06 00:36:15;;;;;;;104.97;99.27;;;10.00;99.90;;;;;;5115029;28;20721;-83
2022/10/06 00:38:41;;;;;;;101.10;95.13;;;10.00;99.90;;;;;;5116050;28;20210;-84
2022/10/06 00:41:09;;;;;;;102.77;97.07;;;10.00;99.90;;;;;;5122671;28;20207;-85
2022/10/06 00:43:56;;;;;;;58.90;55.43;;;10.00;99.90;;;;;;5116559;28;20176;-84
2022/10/06 00:46:44;;;;;;;57.43;54.20;;;10.00;99.90;;;;;;5116981;28;20576;-84
2022/10/06 00:49:09;;;;;;;60.90;57.33;;;10.00;99.90;;;;;;5117922;28;20183;-84
2022/10/06 00:51:40;;;;;;;63.77;60.27;;;10.00;99.90;;;;;;5116319;28;20237;-84
2022/10/06 00:54:06;;;;;;;60.43;57.03;;;10.00;99.90;;;;;;5113459;28;20188;-84
2022/10/06 00:56:32;;;;;;;58.47;55.37;;;10.00;99.90;;;;;;5113773;28;20216;-84
2022/10/06 00:58:58;;;;;;;27.97;26.43;;;10.00;99.90;;;;;;5114167;28;20180;-84
2022/10/06 01:01:27;;;;;;;74.47;70.37;;;10.00;99.90;;;;;;5116123;28;20278;-84
2022/10/06 01:04:01;;;;;;;28.17;26.47;;;9.90;99.90;;;;;;5117121;28;20180;-83
2022/10/06 01:06:27;;;;;;;59.27;55.83;;;9.90;99.90;;;;;;5119130;28;20175;-84
2022/10/06 01:08:53;;;;;;;40.87;38.47;;;9.90;99.90;;;;;;5116498;28;20554;-84
2022/10/06 01:11:19;;;;;;;64.03;60.40;;;9.90;99.90;;;;;;5115612;28;20212;-83
2022/10/06 01:13:45;;;;;;;63.33;59.47;;;9.90;99.90;;;;;;5116442;28;20176;-84
2022/10/06 01:16:23;;;;;;;52.63;49.53;;;9.90;99.90;;;;;;5116311;28;20204;-84
2022/10/06 01:18:49;;;;;;;41.67;39.27;;;9.90;99.90;;;;;;5117520;28;20667;-82
2022/10/06 01:21:30;;;;;;;163.03;152.93;;;9.90;99.90;;;;;;5141316;28;20188;-83
2022/10/06 01:23:56;;;;;;;40.27;37.97;;;9.80;99.90;;;;;;5125426;28;20190;-83
2022/10/06 01:26:24;;;;;;;24.20;22.53;;;9.80;99.90;;;;;;5115725;28;20241;-84
2022/10/06 01:28:50;;;;;;;35.40;33.10;;;9.80;99.90;;;;;;5115620;28;20184;-84
2022/10/06 01:31:17;;;;;;;32.90;30.90;;;9.80;99.90;;;;;;5116081;27;20284;-83
2022/10/06 01:33:42;;;;;;;13.90;12.83;;;9.90;99.90;;;;;;5115010;28;20187;-83
2022/10/06 01:36:08;;;;;;;15.57;14.40;;;9.80;99.90;;;;;;5115393;28;20277;-84
2022/10/06 01:38:35;;;;;;;13.93;12.63;;;9.80;99.90;;;;;;5114916;28;20180;-84
2022/10/06 01:41:01;;;;;;;12.13;11.13;;;9.80;99.90;;;;;;5115649;28;20192;-84
2022/10/06 01:43:27;;;;;;;25.40;22.97;;;9.80;99.90;;;;;;5116571;28;20179;-83
2022/10/06 01:45:55;;;;;;;14.80;13.77;;;9.80;99.90;;;;;;5139222;28;20691;-83
2022/10/06 01:48:21;;;;;;;21.73;19.80;;;9.80;99.90;;;;;;5114717;28;20185;-84
2022/10/06 01:50:47;;;;;;;12.50;11.53;;;9.70;99.90;;;;;;5114129;28;20253;-83
2022/10/06 01:53:12;;;;;;;16.73;15.67;;;9.70;99.90;;;;;;5113731;28;20176;-84
2022/10/06 01:55:38;;;;;;;16.53;15.23;;;9.70;99.90;;;;;;5115369;28;20212;-83
2022/10/06 01:58:04;;;;;;;10.03;9.03;;;9.70;99.90;;;;;;5115910;28;20657;-83
2022/10/06 02:00:30;;;;;;;8.67;7.90;;;9.70;99.90;;;;;;5114498;28;20238;-84
2022/10/06 02:02:56;;;;;;;10.00;8.67;;;9.70;99.90;;;;;;5114106;28;20180;-83
2022/10/06 02:05:22;;;;;;;10.40;9.17;;;9.70;99.90;;;;;;5113791;28;20188;-84
2022/10/06 02:07:48;;;;;;;9.80;8.90;;;9.70;99.90;;;;;;5113334;28;20354;-83
2022/10/06 02:10:14;;;;;;;11.53;10.63;;;9.70;99.90;;;;;;5130527;28;20200;-82
2022/10/06 02:12:41;;;;;;;12.97;11.93;;;9.70;99.90;;;;;;5138769;28;20172;-82
2022/10/06 02:15:09;;;;;;;23.23;21.77;;;9.70;99.90;;;;;;5122573;28;20227;-84
2022/10/06 02:17:36;;;;;;;39.03;36.83;;;9.60;99.90;;;;;;5131120;28;20243;-84
2022/10/06 02:20:04;;;;;;;49.53;46.60;;;9.70;99.90;;;;;;5119625;28;20200;-84
2022/10/06 02:22:30;;;;;;;50.27;47.57;;;9.60;99.90;;;;;;5116020;28;20201;-84
2022/10/06 02:24:56;;;;;;;39.43;36.73;;;9.50;99.90;;;;;;5113998;28;20177;-84
2022/10/06 02:27:22;;;;;;;51.70;48.93;;;9.50;99.90;;;;;;5113853;28;20527;-83
2022/10/06 02:29:48;;;;;;;56.90;53.57;;;9.50;99.90;;;;;;5118498;28;20195;-82
2022/10/06 02:32:14;;;;;;;75.97;71.77;;;9.40;99.90;;;;;;5140179;28;20167;-82
2022/10/06 02:34:40;;;;;;;82.97;78.27;;;9.40;99.90;;;;;;5122277;28;20180;-83
2022/10/06 02:37:06;;;;;;;94.10;89.00;;;9.40;99.90;;;;;;5114534;28;20216;-83
2022/10/06 02:39:31;;;;;;;107.27;101.53;;;9.30;99.90;;;;;;5115198;28;20196;-84
2022/10/06 02:41:57;;;;;;;80.20;76.00;;;9.30;99.90;;;;;;5120189;28;20187;-83
2022/10/06 02:44:23;;;;;;;84.10;79.63;;;9.30;99.90;;;;;;5115340;28;20188;-83
2022/10/06 02:46:51;;;;;;;107.83;102.23;;;9.20;99.90;;;;;;5112890;28;20183;-84
2022/10/06 02:49:17;;;;;;;101.63;96.17;;;9.20;99.90;;;;;;5113339;28;20654;-83
2022/10/06 02:51:43;;;;;;;52.20;49.17;;;9.10;99.90;;;;;;5114248;28;20177;-83
2022/10/06 02:54:09;;;;;;;40.00;37.73;;;9.10;99.90;;;;;;5114145;28;20218;-83
2022/10/06 02:56:36;;;;;;;16.43;15.13;;;9.00;99.90;;;;;;5112944;28;20204;-84
2022/10/06 02:59:02;;;;;;;11.23;10.33;;;9.00;99.90;;;;;;5113019;28;20168;-83
2022/10/06 03:01:29;;;;;;;40.60;38.23;;;8.90;99.90;;;;;;5113231;28;20767;-83
2022/10/06 03:03:55;;;;;;;63.77;60.33;;;8.90;99.90;;;;;;5114222;28;20210;-83
2022/10/06 03:06:23;;;;;;;48.67;46.07;;;8.90;99.90;;;;;;5112808;28;20208;-83
2022/10/06 03:08:57;;;;;;;37.57;35.67;;;9.00;99.90;;;;;;5113090;28;20190;-83
2022/10/06 03:11:26;;;;;;;63.97;60.50;;;9.10;99.90;;;;;;5113514;28;20212;-84
2022/10/06 03:13:52;;;;;;;97.27;92.20;;;9.00;99.90;;;;;;5113946;28;20180;-83
2022/10/06 03:16:27;;;;;;;54.47;51.43;;;9.00;99.90;;;;;;5112853;28;20211;-83
2022/10/06 03:18:54;;;;;;;42.97;40.33;;;9.10;99.90;;;;;;5113865;28;20183;-83
2022/10/06 03:21:23;;;;;;;27.73;26.13;;;9.00;99.90;;;;;;5115723;28;20225;-83
2022/10/06 03:23:51;;;;;;;72.33;68.57;;;9.00;99.90;;;;;;5113785;28;20192;-84
2022/10/06 03:26:19;;;;;;;108.53;102.83;;;9.00;99.90;;;;;;5114743;28;20183;-82
2022/10/06 03:28:45;;;;;;;88.83;83.93;;;9.00;99.90;;;;;;5131143;28;20253;-83
2022/10/06 03:31:12;;;;;;;99.07;93.97;;;9.10;99.90;;;;;;5123192;28;20206;-82
2022/10/06 03:33:38;;;;;;;72.80;69.00;;;9.10;99.90;;;;;;5119991;28;20223;-84
2022/10/06 03:36:10;;;;;;;46.87;44.23;;;9.20;99.90;;;;;;5112524;28;20636;-83
2022/10/06 03:38:36;;;;;;;43.73;41.23;;;9.20;99.90;;;;;;5125454;28;20173;-83
2022/10/06 03:41:08;;;;;;;27.93;26.23;;;9.30;99.90;;;;;;5137631;28;20192;-83
2022/10/06 03:43:35;;;;;;;36.93;34.63;;;9.40;99.90;;;;;;5112903;28;20184;-84
2022/10/06 03:46:02;;;;;;;80.53;76.23;;;9.50;99.90;;;;;;5113494;28;20233;-83
2022/10/06 03:48:30;;;;;;;111.40;105.47;;;9.60;99.90;;;;;;5111910;28;20267;-83
2022/10/06 03:50:58;;;;;;;123.50;116.77;;;9.80;99.90;;;;;;5113006;28;20222;-83
2022/10/06 03:53:27;;;;;;;14.80;13.73;;;9.90;99.90;;;;;;5111733;28;20184;-84
2022/10/06 03:56:10;;;;;;;7.70;6.77;;;9.90;99.90;;;;;;5112746;28;20761;-85
2022/10/06 03:58:41;;;;;;;7.40;6.80;;;10.00;99.90;;;;;;5098797;28;20269;-83
2022/10/06 04:01:38;;;;;;;11.13;10.13;;;10.10;99.90;;;;;;5097790;28;20201;-83
2022/10/06 04:04:05;;;;;;;25.30;23.40;;;10.20;99.90;;;;;;5090899;28;20196;-84
2022/10/06 04:06:33;;;;;;;30.73;28.93;;;10.20;99.90;;;;;;5094327;28;20669;-84
2022/10/06 04:08:59;;;;;;;23.33;21.80;;;10.30;99.90;;;;;;5118345;28;20181;-84
2022/10/06 04:11:28;;;;;;;16.33;14.93;;;10.40;99.90;;;;;;5085431;22;20226;-79
2022/10/06 04:13:57;;;;;;;16.50;15.30;;;10.50;99.90;;;;;;5051142;28;20297;-79
2022/10/06 04:16:37;;;;;;;17.17;9.10;;;10.50;99.90;;;;;;5053356;28;20217;-79
2022/10/06 04:19:08;;;;;;;7.90;7.30;;;10.60;99.90;;;;;;5052276;28;20860;-79
2022/10/06 04:21:36;;;;;;;6.90;6.30;;;10.70;99.90;;;;;;5061677;28;20671;-80
2022/10/06 04:24:03;;;;;;;13.10;9.47;;;10.70;99.90;;;;;;5056650;28;20334;-81
2022/10/06 04:26:34;;;;;;;11.03;9.87;;;10.80;99.90;;;;;;5058188;28;20178;-82
2022/10/06 04:29:00;;;;;;;11.20;10.33;;;10.90;99.90;;;;;;5054024;28;20187;-81
2022/10/06 04:31:29;;;;;;;19.17;17.80;;;10.90;99.90;;;;;;5053689;28;20214;-80
2022/10/06 04:33:56;;;;;;;23.43;21.60;;;10.90;99.90;;;;;;5053259;28;20214;-80
2022/10/06 04:36:25;;;;;;;40.77;38.43;;;11.00;99.90;;;;;;5057960;28;20210;-80
2022/10/06 04:38:57;;;;;;;36.23;34.13;;;11.00;99.90;;;;;;5056790;28;20183;-80
2022/10/06 04:41:45;;;;;;;38.17;35.97;;;11.00;99.90;;;;;;5057342;28;20209;-81
2022/10/06 04:44:11;;;;;;;40.03;37.90;;;11.00;99.90;;;;;;5056512;28;20178;-80
2022/10/06 04:46:37;;;;;;;39.43;37.27;;;11.10;99.90;;;;;;5057549;28;20602;-81
2022/10/06 04:49:03;;;;;;;45.50;42.77;;;11.10;99.90;;;;;;5055985;28;20703;-79
2022/10/06 04:51:29;;;;;;;36.40;33.53;;;11.20;99.90;;;;;;5055745;28;20329;-80
2022/10/06 04:53:55;;;;;;;27.10;25.27;;;11.20;99.90;;;;;;5056078;28;20182;-81
2022/10/06 04:56:24;;;;;;;19.83;18.50;;;11.20;99.90;;;;;;5062231;28;20206;-81
2022/10/06 04:58:52;;;;;;;19.77;18.23;;;11.30;99.90;;;;;;5060355;28;20178;-80
2022/10/06 05:01:30;;;;;;;20.73;19.30;;;11.30;99.90;;;;;;5058860;28;20275;-82
2022/10/06 05:03:58;;;;;;;20.83;19.37;;;11.30;99.90;;;;;;5057613;28;20651;-80
2022/10/06 05:06:30;;;;;;;23.47;21.57;;;11.30;99.90;;;;;;5056847;28;20236;-81
2022/10/06 05:08:59;;;;;;;23.90;22.17;;;11.40;99.90;;;;;;5056770;28;20201;-80
2022/10/06 05:11:25;;;;;;;22.20;20.30;;;11.40;99.90;;;;;;5055158;28;20234;-71
2022/10/06 05:13:53;;;;;;;24.53;22.63;;;11.40;99.90;;;;;;5054156;28;20179;-71
2022/10/06 05:16:20;;;;;;;35.27;32.60;;;11.40;99.90;;;;;;5053858;28;20208;-71
2022/10/06 05:18:46;;;;;;;24.30;22.83;;;11.40;99.90;;;;;;5053359;28;20248;-72
2022/10/06 05:21:15;;;;;;;26.33;24.67;;;11.40;99.90;;;;;;5052812;28;20198;-70
2022/10/06 05:23:42;;;;;;;31.10;29.37;;;11.50;99.90;;;;;;5044622;28;20241;-70
2022/10/06 05:26:11;;;;;;;30.87;29.07;;;11.50;99.90;;;;;;5032850;28;20670;-72
2022/10/06 05:28:37;;;;;;;31.80;29.63;;;11.50;99.90;;;;;;5033411;28;20232;-72
2022/10/06 05:31:09;;;;;;;37.83;35.13;;;11.50;99.90;;;;;;5048949;28;20229;-72
2022/10/06 05:33:35;;;;;;;24.70;23.03;;;11.50;99.90;;;;;;5032919;28;20186;-71
2022/10/06 05:36:04;;;;;;;27.73;25.83;;;11.50;99.90;;;;;;5033018;28;20213;-73
2022/10/06 05:38:31;;;;;;;22.87;21.37;;;11.50;99.90;;;;;;5037374;28;20721;-71
2022/10/06 05:41:02;;;;;;;24.43;23.03;;;11.60;99.90;;;;;;5048886;28;20195;-72
2022/10/06 05:43:29;;;;;;;25.30;23.80;;;11.60;99.90;;;;;;5052755;28;20182;-71
2022/10/06 05:45:57;;;;;;;35.70;33.70;;;11.70;99.90;;;;;;5053863;28;20204;-71
2022/10/06 05:48:23;;;;;;;36.47;34.27;;;11.70;99.90;;;;;;5052382;28;20186;-72
2022/10/06 05:51:04;;;;;;;35.13;33.03;;;11.70;99.90;;;;;;5053244;28;20205;-71
2022/10/06 05:53:32;;;;;;;29.03;27.03;;;11.70;99.90;;;;;;5047768;28;20182;-71
2022/10/06 05:56:09;;;;;;;22.53;20.93;;;11.70;99.90;;;;;;5053528;28;20198;-72
2022/10/06 05:58:37;;;;;;;18.30;16.87;;;11.80;99.90;;;;;;5053140;28;20189;-71
2022/10/06 06:01:12;;;;;;;17.03;15.83;;;11.80;99.90;;;;;;5052983;28;20213;-72
2022/10/06 06:03:39;;;;;;;23.90;22.37;;;11.90;99.90;;;;;;5052945;28;20223;-72
2022/10/06 06:06:21;;;;;;;31.00;29.27;;;12.00;99.90;;;;;;5054462;28;20178;-72
2022/10/06 06:08:51;;;;;;;35.20;33.17;;;12.00;99.90;;;;;;5053447;28;20671;-72
2022/10/06 06:11:17;;;;;;;37.53;35.20;;;12.00;99.90;;;;;;5053075;28;20261;-72
2022/10/06 06:13:43;;;;;;;37.50;35.37;;;12.00;99.90;;;;;;5052664;28;20221;-72
2022/10/06 06:16:14;;;;;;;24.37;22.80;;;12.10;99.90;;;;;;5052340;28;20859;-70
2022/10/06 06:18:41;;;;;;;25.77;24.23;;;12.10;99.90;;;;;;5041219;28;20183;-70
2022/10/06 06:21:08;;;;;;;12.87;11.90;;;12.20;99.90;;;;;;5031835;28;20210;-70
2022/10/06 06:23:37;;;;;;;8.90;7.07;;;12.30;99.90;;;;;;5033391;28;20190;-70
2022/10/06 06:26:07;;;;;;;11.50;7.23;;;12.30;99.90;;;;;;5032269;28;20183;-71
2022/10/06 06:28:35;;;;;;;10.00;6.67;;;12.30;99.90;;;;;;5040625;28;20325;-70
2022/10/06 06:31:07;;;;;;;14.13;6.73;;;12.30;99.90;;;;;;5056087;28;20693;-70
2022/10/06 06:33:37;;;;;;;12.10;7.10;;;12.40;99.90;;;;;;5055869;28;20726;-71
2022/10/06 06:36:23;;;;;;;10.37;7.03;;;12.50;99.90;;;;;;5052502;28;20217;-70
2022/10/06 06:38:51;;;;;;;13.03;8.87;;;12.50;99.90;;;;;;5051807;28;20381;-71
2022/10/06 06:41:24;;;;;;;15.20;11.03;;;12.60;99.90;;;;;;5051103;28;20676;-74
2022/10/06 06:43:51;;;;;;;45.27;42.73;;;12.70;99.90;;;;;;5052118;28;20229;-72
2022/10/06 06:46:19;;;;;;;89.20;84.60;;;12.80;99.90;;;;;;5053205;28;20665;-72
2022/10/06 06:48:46;;;;;;;93.73;88.73;;;12.70;99.90;;;;;;5054108;28;20182;-72
2022/10/06 06:51:12;;;;;;;109.83;103.93;;;12.80;99.90;;;;;;5052070;28;20589;-72
2022/10/06 06:53:39;;;;;;;102.27;96.50;;;12.90;99.90;;;;;;5052037;28;20182;-71
2022/10/06 06:56:07;;;;;;;74.10;70.30;;;13.00;99.90;;;;;;5052055;28;20264;-71
2022/10/06 06:58:34;;;;;;;47.07;44.53;;;13.00;99.90;;;;;;5050080;28;20524;-72
2022/10/06 07:01:07;;;;;;;18.67;17.20;;;13.10;99.90;;;;;;5051281;28;20218;-72
2022/10/06 07:03:33;;;;;;;14.50;13.27;;;13.20;99.90;;;;;;5057681;28;20179;-71
2022/10/06 07:06:08;;;;;;;20.70;19.00;;;13.30;99.90;;;;;;5059453;28;20185;-71
2022/10/06 07:08:36;;;;;;;25.83;23.47;;;13.40;99.90;;;;;;5050439;28;20186;-71
2022/10/06 07:11:13;;;;;;;25.30;23.47;;;13.50;99.90;;;;;;5052647;28;20222;-71
2022/10/06 07:13:39;;;;;;;30.00;27.60;;;13.70;99.90;;;;;;5052705;28;20182;-72
2022/10/06 07:27:05;;;;;;;13.03;11.73;;;14.30;99.90;;;;;;5051675;28;20182;-72
2022/10/06 07:29:30;;;;;;;8.93;7.97;;;14.60;99.90;;;;;;5051809;28;20501;-72
2022/10/06 07:31:56;;;;;;;9.43;8.53;;;14.70;99.90;;;;;;5051905;28;20219;-72
2022/10/06 07:34:22;;;;;;;11.97;10.77;;;14.90;99.90;;;;;;5051638;28;20178;-72
2022/10/06 07:36:49;;;;;;;15.20;13.53;;;15.00;99.90;;;;;;5051463;28;20221;-72
2022/10/06 07:39:14;;;;;;;18.47;14.17;;;15.10;99.90;;;;;;5051542;28;20212;-72
2022/10/06 07:41:40;;;;;;;12.90;11.50;;;15.10;99.90;;;;;;5050468;28;20675;-72
2022/10/06 07:44:06;;;;;;;9.73;8.93;;;15.20;99.90;;;;;;5051710;28;20674;-72
2022/10/06 07:46:34;;;;;;;9.73;8.67;;;15.20;99.90;;;;;;5051827;28;20182;-72
2022/10/06 07:49:00;;;;;;;13.20;9.70;;;15.30;99.90;;;;;;5051197;28;20602;-72
2022/10/06 07:51:27;;;;;;;10.13;9.10;;;15.40;99.90;;;;;;5050141;28;20213;-72
2022/10/06 07:53:53;;;;;;;10.20;9.30;;;15.50;99.90;;;;;;5050202;28;20177;-72
2022/10/06 07:56:19;;;;;;;10.77;9.77;;;15.60;99.90;;;;;;5051441;28;20210;-71
2022/10/06 07:58:49;;;;;;;9.60;8.70;;;15.70;99.90;;;;;;5030831;28;20179;-70
2022/10/06 08:01:17;;;;;;;8.90;7.97;;;15.80;99.90;;;;;;5540728;22;20238;-70
2022/10/06 08:03:47;;;;;;;10.03;8.93;;;15.90;99.90;;;;;;5066279;28;20236;-71
2022/10/06 08:06:16;;;;;;;11.07;8.90;;;15.90;99.90;;;;;;5051574;28;20681;-72
2022/10/06 08:08:46;;;;;;;10.67;8.83;;;16.00;99.90;;;;;;5051337;28;20265;-72
2022/10/06 08:11:12;;;;;;;10.30;8.53;;;16.10;99.90;;;;;;5058369;28;20608;-71
2022/10/06 08:13:43;;;;;;;12.27;7.80;;;16.20;99.90;;;;;;5032899;28;20178;-72
2022/10/06 08:16:18;;;;;;;9.47;8.43;;;16.30;99.90;;;;;;5084271;22;20226;-73
2022/10/06 08:18:52;;;;;;;9.13;7.97;;;16.40;99.90;;;;;;5070461;28;20652;-72
2022/10/06 08:21:21;;;;;;;12.57;11.10;;;16.70;99.90;;;;;;5073117;28;20185;-72
2022/10/06 08:23:48;;;;;;;24.53;22.57;;;16.90;99.90;;;;;;5084271;28;20173;-72
2022/10/06 08:26:16;;;;;;;30.20;28.10;;;17.20;99.90;;;;;;5071333;28;20201;-72
2022/10/06 08:28:48;;;;;;;22.47;20.87;;;17.40;99.90;;;;;;5070871;28;20642;-72
2022/10/06 08:31:16;;;;;;;16.77;15.30;;;17.60;99.90;;;;;;5071025;28;20187;-72
2022/10/06 08:33:43;;;;;;;12.17;11.10;;;17.90;99.90;;;;;;5070738;28;20227;-72
2022/10/06 08:36:18;;;;;;;16.47;15.40;;;18.30;99.90;;;;;;5053310;28;20217;-73
2022/10/06 08:38:49;;;;;;;31.00;29.17;;;18.60;99.90;;;;;;5051953;28;20726;-72
2022/10/06 08:41:28;;;;;;;20.30;19.00;;;18.50;99.90;;;;;;5070793;28;20524;-72
2022/10/06 08:44:20;;;;;;;17.33;16.17;;;18.10;99.90;;;;;;5052940;28;20173;-72
2022/10/06 08:46:54;;;;;;;17.70;16.60;;;17.80;99.90;;;;;;5039461;28;20213;-72
2022/10/06 08:49:23;;;;;;;21.50;20.10;;;17.60;99.90;;;;;;5069947;28;20272;-72
2022/10/06 08:52:15;;;;;;;31.87;29.93;;;17.30;99.90;;;;;;5052747;28;20650;-72
2022/10/06 08:54:57;;;;;;;41.30;39.10;;;17.30;99.90;;;;;;5070754;28;20692;-72
2022/10/06 08:57:51;;;;;;;33.07;31.23;;;17.30;99.90;;;;;;5052575;28;20269;-71
2022/10/06 09:00:18;;;;;;;39.23;37.07;;;17.30;99.90;;;;;;5069391;28;20808;-70
2022/10/06 09:02:46;;;;;;;36.10;34.10;;;17.20;99.90;;;;;;5070922;28;20178;-71
2022/10/06 09:05:24;;;;;;;46.10;43.57;;;17.30;99.90;;;;;;5052870;28;20202;-71
2022/10/06 09:08:17;;;;;;;41.03;38.13;;;17.40;99.90;;;;;;5070901;28;20181;-71
2022/10/06 09:10:50;;;;;;;30.50;28.37;;;17.60;99.90;;;;;;5053952;28;20170;-71
2022/10/06 09:13:27;;;;;;;19.23;17.87;;;17.70;99.90;;;;;;5052696;28;20639;-71
2022/10/06 09:15:59;;;;;;;14.50;13.70;;;17.80;99.90;;;;;;5052476;28;20259;-71
2022/10/06 09:18:35;;;;;;;16.60;15.70;;;17.90;99.90;;;;;;5070057;28;20178;-71
2022/10/06 09:21:03;;;;;;;15.50;14.03;;;17.90;99.90;;;;;;5071126;28;20185;-71
2022/10/06 09:23:46;;;;;;;13.80;12.80;;;17.90;99.90;;;;;;5055505;28;20712;-71
2022/10/06 09:26:14;;;;;;;18.83;17.63;;;18.10;99.90;;;;;;5056254;28;20263;-71
2022/10/06 09:28:40;;;;;;;11.93;11.13;;;18.20;99.90;;;;;;5072696;28;20182;-71
2022/10/06 09:31:28;;;;;;;11.63;10.57;;;18.40;99.90;;;;;;5074511;28;20211;-72
2022/10/06 09:34:03;;;;;;;9.70;7.97;;;18.40;99.90;;;;;;5074335;28;20173;-72
2022/10/06 09:36:31;;;;;;;8.97;7.57;;;18.30;99.90;;;;;;5056519;28;20594;-71
2022/10/06 09:38:59;;;;;;;11.53;10.83;;;18.30;99.90;;;;;;5072333;28;20174;-71
2022/10/06 09:41:30;;;;;;;27.90;26.37;;;18.20;99.90;;;;;;5073857;28;20232;-71
2022/10/06 09:44:03;;;;;;;32.93;30.83;;;18.30;99.90;;;;;;5073827;28;20182;-72
2022/10/06 09:46:35;;;;;;;31.50;29.63;;;18.40;99.90;;;;;;5073961;28;20197;-71
2022/10/06 09:49:12;;;;;;;32.43;30.23;;;18.40;99.90;;;;;;5073241;28;20193;-71
2022/10/06 09:51:38;;;;;;;31.10;29.30;;;18.70;99.90;;;;;;5072858;28;20186;-71
2022/10/06 09:54:15;;;;;;;25.73;24.00;;;18.70;99.90;;;;;;5073603;28;20239;-71
2022/10/06 09:56:43;;;;;;;13.47;12.67;;;19.00;99.90;;;;;;5073554;28;20220;-71
2022/10/06 09:59:39;;;;;;;9.87;8.90;;;19.20;99.90;;;;;;5073187;28;20173;-71
2022/10/06 10:02:30;;;;;;;6.60;6.00;;;19.30;99.90;;;;;;5078995;28;20216;-73
2022/10/06 10:04:57;;;;;;;8.83;7.93;;;19.70;99.90;;;;;;5092789;28;20189;-71
2022/10/06 10:07:26;;;;;;;36.43;34.07;;;19.80;99.90;;;;;;5084440;28;20192;-71
2022/10/06 10:09:52;;;;;;;51.90;49.27;;;19.80;99.90;;;;;;5056760;28;20239;-72
2022/10/06 10:12:24;;;;;;;57.30;54.27;;;19.80;99.90;;;;;;5072498;28;20198;-71
2022/10/06 10:14:51;;;;;;;75.67;71.87;;;19.60;99.90;;;;;;5055256;28;20682;-71
2022/10/06 10:17:28;;;;;;;72.47;68.70;;;19.70;99.90;;;;;;5061944;28;20213;-71
2022/10/06 10:19:54;;;;;;;73.10;69.27;;;19.50;99.90;;;;;;5052937;28;20174;-71
2022/10/06 10:22:26;;;;;;;51.13;48.33;;;19.60;99.90;;;;;;5053077;28;20435;-71
2022/10/06 10:24:59;;;;;;;42.80;40.30;;;19.60;99.90;;;;;;5057252;28;20185;-71
2022/10/06 10:27:38;;;;;;;40.90;38.33;;;19.40;99.90;;;;;;5072401;28;20535;-71
2022/10/06 10:30:08;;;;;;;53.93;51.07;;;19.20;99.90;;;;;;5072796;28;20178;-71
2022/10/06 10:32:51;;;;;;;72.43;68.67;;;19.10;99.90;;;;;;5054004;28;20186;-71
2022/10/06 10:35:32;;;;;;;75.77;71.67;;;19.10;99.90;;;;;;5072598;28;20206;-71
2022/10/06 10:38:07;;;;;;;79.57;75.27;;;19.10;99.90;;;;;;5072476;28;20182;-71
2022/10/06 10:40:41;;;;;;;83.60;79.50;;;19.00;99.90;;;;;;5055176;28;20184;-71
2022/10/06 10:43:52;;;;;;;79.17;75.17;;;19.00;99.90;;;;;;5054777;28;20192;-71
2022/10/06 10:46:41;;;;;;;85.23;80.97;;;19.10;99.90;;;;;;5049621;28;20214;-71
2022/10/06 10:49:15;;;;;;;77.97;73.77;;;19.30;99.90;;;;;;5072275;28;20211;-71
2022/10/06 10:51:57;;;;;;;74.00;70.17;;;19.30;99.90;;;;;;5054800;28;20196;-71
2022/10/06 10:55:03;;;;;;;65.47;62.07;;;19.30;99.90;;;;;;5054658;28;20717;-71
2022/10/06 10:57:39;;;;;;;35.23;33.40;;;19.20;99.90;;;;;;5022802;28;20221;-71
2022/10/06 11:00:20;;;;;;;36.00;33.90;;;19.40;99.90;;;;;;5052365;28;20186;-71
2022/10/06 11:02:47;;;;;;;31.50;29.70;;;19.50;99.90;;;;;;5034495;28;20190;-71
2022/10/06 11:05:42;;;;;;;34.67;32.67;;;19.60;99.90;;;;;;5059016;28;20205;-71
2022/10/06 11:08:38;;;;;;;33.57;31.40;;;19.60;99.90;;;;;;5081927;28;20638;-71
2022/10/06 11:11:14;;;;;;;28.23;26.47;;;19.90;99.90;;;;;;5072169;28;20238;-71
2022/10/06 11:13:51;;;;;;;16.47;15.57;;;20.00;99.90;;;;;;5071731;28;20846;-71
2022/10/06 11:16:42;;;;;;;14.33;13.43;;;20.00;99.90;;;;;;5071477;28;20303;-71
2022/10/06 11:19:17;;;;;;;16.20;14.70;;;20.00;99.90;;;;;;5071720;28;20186;-71
2022/10/06 11:21:45;;;;;;;14.20;13.10;;;20.10;99.90;;;;;;5071881;28;20204;-71
2022/10/06 11:24:33;;;;;;;15.87;14.80;;;20.20;99.90;;;;;;5054413;28;20213;-72
2022/10/06 11:27:17;;;;;;;15.03;14.23;;;20.00;99.90;;;;;;5050385;28;20240;-71
2022/10/06 11:30:18;;;;;;;14.67;13.43;;;19.80;99.90;;;;;;5054095;28;20185;-71
2022/10/06 11:33:08;;;;;;;26.17;24.70;;;19.90;99.90;;;;;;5053958;28;20680;-72
2022/10/06 11:35:37;;;;;;;15.37;14.47;;;20.00;99.90;;;;;;5071440;28;20216;-72
2022/10/06 11:38:03;;;;;;;13.50;12.60;;;19.80;99.90;;;;;;5071801;28;20635;-72
2022/10/06 11:41:08;;;;;;;22.70;21.43;;;19.70;99.90;;;;;;5053714;28;20205;-71
2022/10/06 11:43:38;;;;;;;15.87;15.07;;;19.60;99.90;;;;;;5071747;28;20658;-71
2022/10/06 11:46:37;;;;;;;17.87;16.47;;;19.50;99.90;;;;;;5058564;28;20763;-72
2022/10/06 11:49:32;;;;;;;16.47;15.40;;;19.50;99.90;;;;;;5077869;28;20273;-72
2022/10/06 11:52:10;;;;;;;14.87;13.53;;;19.50;99.90;;;;;;5054063;28;20192;-71
2022/10/06 11:54:39;;;;;;;14.13;13.13;;;19.40;99.90;;;;;;5072436;28;20186;-71
2022/10/06 11:57:23;;;;;;;15.67;14.60;;;19.40;99.90;;;;;;5071096;28;20218;-72
2022/10/06 11:59:54;;;;;;;19.10;18.00;;;19.40;99.90;;;;;;5071461;28;20239;-72
2022/10/06 12:02:29;;;;;;;25.77;24.30;;;19.60;99.90;;;;;;5071436;28;20177;-72
2022/10/06 12:05:17;;;;;;;29.80;28.10;;;19.60;99.90;;;;;;5053327;28;20181;-72
2022/10/06 12:07:56;;;;;;;29.97;28.03;;;20.10;99.90;;;;;;5071001;28;20662;-72
2022/10/06 12:10:28;;;;;;;22.60;21.20;;;20.90;99.90;;;;;;5071298;28;20681;-72
2022/10/06 12:13:12;;;;;;;14.17;13.30;;;21.00;99.90;;;;;;5071307;28;20252;-72
2022/10/06 12:16:19;;;;;;;27.33;25.50;;;21.30;99.90;;;;;;5070853;28;20209;-72
2022/10/06 12:19:32;;;;;;;24.00;21.95;;;22.60;99.90;;;;;;5066811;28;20189;-72
2022/10/06 12:22:25;;;;;;;47.55;45.00;;;23.80;99.90;;;;;;5035259;28;20190;-72
2022/10/06 12:25:15;;;;;;;49.00;46.45;;;23.60;99.90;;;;;;5070811;28;20999;-72
2022/10/06 12:27:48;;;;;;;53.60;50.47;;;23.20;99.90;;;;;;5070670;28;20178;-72
2022/10/06 12:30:26;;;;;;;60.50;57.13;;;22.70;99.90;;;;;;5071146;28;20173;-71
2022/10/06 12:32:55;;;;;;;68.97;65.13;;;21.90;99.90;;;;;;5071065;28;20181;-72
2022/10/06 12:35:29;;;;;;;69.45;65.63;;;21.30;99.90;;;;;;5052797;28;20186;-72
2022/10/06 12:37:59;;;;;;;75.22;71.35;;;21.10;99.90;;;;;;5070875;28;20181;-76
2022/10/06 12:40:40;;;;;;;43.75;41.15;;;20.70;99.90;;;;;;5053476;28;20189;-72
2022/10/06 12:43:18;;;;;;;14.03;13.20;;;20.40;99.90;;;;;;5071340;28;20230;-71
2022/10/06 12:45:43;;;;;;;11.00;10.30;;;20.00;99.90;;;;;;5071315;28;20201;-78
2022/10/06 12:48:21;;;;;;;28.60;26.87;;;19.80;99.90;;;;;;5070567;28;20523;-72
2022/10/06 12:50:53;;;;;;;43.20;40.53;;;19.90;99.90;;;;;;5053143;28;20181;-71
2022/10/06 12:53:27;;;;;;;86.43;81.90;;;20.10;99.90;;;;;;5070903;28;20192;-71
2022/10/06 12:56:00;;;;;;;73.43;69.75;;;20.30;99.90;;;;;;5070914;28;20208;-71
2022/10/06 12:58:29;;;;;;;24.98;23.63;;;20.60;99.90;;;;;;5074295;28;20654;-72
2022/10/06 13:01:04;;;;;;;29.47;27.60;;;20.70;99.90;;;;;;5074755;28;20221;-73
2022/10/06 13:03:30;;;;;;;48.30;45.70;;;20.20;99.90;;;;;;5074847;28;20188;-72
2022/10/06 13:05:59;;;;;;;77.73;73.63;;;19.90;99.90;;;;;;5074313;28;20205;-72